sensor_id;sensor_type;location;lat;lon;timestamp;temperature;humidity
29551;DHT22;16488;52.396;10.696;2023-08-12T00:00:16;17.80;99.90
29551;DHT22;16488;52.396;10.696;2023-08-12T00:02:43;17.80;99.90
29551;DHT22;16488;52.396;10.696;2023-08-12T00:05:09;17.90;99.90
29551;DHT22;16488;52.396;10.696;2023-08-12T00:07:41;17.80;99.90
29551;DHT22;16488;52.396;10.696;2023-08-12T00:10:07;17.80;99.90
29551;DHT22;16488;52.396;10.696;2023-08-12T00:12:35;17.80;99.90
29551;DHT22;16488;52.396;10.696;2023-08-12T00:15:02;17.80;99.90
29551;DHT22;16488;52.396;10.696;2023-08-12T00:17:28;17.80;99.90
29551;DHT22;16488;52.396;10.696;2023-08-12T00:19:54;17.80;99.90
29551;DHT22;16488;52.396;10.696;2023-08-12T00:22:20;17.80;99.90
29551;DHT22;16488;52.396;10.696;2023-08-12T00:24:45;17.80;99.90
29551;DHT22;16488;52.396;10.696;2023-08-12T00:27:11;17.80;99.90
29551;DHT22;16488;52.396;10.696;2023-08-12T00:29:37;17.80;99.90
29551;DHT22;16488;52.396;10.696;2023-08-12T00:32:03;17.80;99.90
29551;DHT22;16488;52.396;10.696;2023-08-12T00:34:29;17.80;99.90
29551;DHT22;16488;52.396;10.696;2023-08-12T00:36:54;17.80;99.90
29551;DHT22;16488;52.396;10.696;2023-08-12T00:39:20;17.80;99.90
29551;DHT22;16488;52.396;10.696;2023-08-12T00:41:46;17.90;99.90
29551;DHT22;16488;52.396;10.696;2023-08-12T00:44:12;17.80;99.90
29551;DHT22;16488;52.396;10.696;2023-08-12T00:46:41;17.80;99.90
29551;DHT22;16488;52.396;10.696;2023-08-12T00:49:08;17.80;99.90
29551;DHT22;16488;52.396;10.696;2023-08-12T00:51:34;17.90;99.90
29551;DHT22;16488;52.396;10.696;2023-08-12T00:54:03;17.90;99.90
29551;DHT22;16488;52.396;10.696;2023-08-12T00:56:31;17.90;99.90
29551;DHT22;16488;52.396;10.696;2023-08-12T00:58:59;17.80;99.90
29551;DHT22;16488;52.396;10.696;2023-08-12T01:01:25;17.80;99.90
29551;DHT22;16488;52.396;10.696;2023-08-12T01:03:52;17.80;99.90
29551;DHT22;16488;52.396;10.696;2023-08-12T01:06:18;17.90;99.90
29551;DHT22;16488;52.396;10.696;2023-08-12T01:08:44;17.90;99.90
29551;DHT22;16488;52.396;10.696;2023-08-12T01:11:16;17.90;99.90
29551;DHT22;16488;52.396;10.696;2023-08-12T01:16:13;17.80;99.90
29551;DHT22;16488;52.396;10.696;2023-08-12T01:18:40;17.80;99.90
29551;DHT22;16488;52.396;10.696;2023-08-12T01:21:10;17.80;99.90
29551;DHT22;16488;52.396;10.696;2023-08-12T01:23:38;17.80;99.90
29551;DHT22;16488;52.396;10.696;2023-08-12T01:26:04;17.80;99.90
29551;DHT22;16488;52.396;10.696;2023-08-12T01:28:30;17.90;99.90
29551;DHT22;16488;52.396;10.696;2023-08-12T01:31:27;17.80;99.90
29551;DHT22;16488;52.396;10.696;2023-08-12T01:34:07;17.90;99.90
29551;DHT22;16488;52.396;10.696;2023-08-12T01:36:36;17.80;99.90
29551;DHT22;16488;52.396;10.696;2023-08-12T01:39:02;17.80;99.90
29551;DHT22;16488;52.396;10.696;2023-08-12T01:41:30;17.90;99.90
29551;DHT22;16488;52.396;10.696;2023-08-12T01:43:55;17.80;99.90
29551;DHT22;16488;52.396;10.696;2023-08-12T01:46:22;17.80;99.90
29551;DHT22;16488;52.396;10.696;2023-08-12T01:48:47;17.80;99.90
29551;DHT22;16488;52.396;10.696;2023-08-12T01:51:13;17.80;99.90
29551;DHT22;16488;52.396;10.696;2023-08-12T01:53:39;17.80;99.90
29551;DHT22;16488;52.396;10.696;2023-08-12T01:56:04;17.80;99.90
29551;DHT22;16488;52.396;10.696;2023-08-12T01:58:30;17.80;99.90
29551;DHT22;16488;52.396;10.696;2023-08-12T02:00:55;17.80;99.90
29551;DHT22;16488;52.396;10.696;2023-08-12T02:03:21;17.70;99.90
29551;DHT22;16488;52.396;10.696;2023-08-12T02:05:47;17.80;99.90
29551;DHT22;16488;52.396;10.696;2023-08-12T02:08:13;17.80;99.90
29551;DHT22;16488;52.396;10.696;2023-08-12T02:10:39;17.80;99.90
29551;DHT22;16488;52.396;10.696;2023-08-12T02:13:05;17.90;99.90
29551;DHT22;16488;52.396;10.696;2023-08-12T02:15:30;17.90;99.90
29551;DHT22;16488;52.396;10.696;2023-08-12T02:17:56;17.90;99.90
29551;DHT22;16488;52.396;10.696;2023-08-12T02:20:22;17.90;99.90
29551;DHT22;16488;52.396;10.696;2023-08-12T02:22:47;17.90;99.90
29551;DHT22;16488;52.396;10.696;2023-08-12T02:25:13;18.00;99.90
29551;DHT22;16488;52.396;10.696;2023-08-12T02:27:38;18.10;99.90
29551;DHT22;16488;52.396;10.696;2023-08-12T02:30:05;18.20;99.90
29551;DHT22;16488;52.396;10.696;2023-08-12T02:32:30;18.20;99.90
29551;DHT22;16488;52.396;10.696;2023-08-12T02:34:56;18.20;99.90
29551;DHT22;16488;52.396;10.696;2023-08-12T02:37:21;18.20;99.90
29551;DHT22;16488;52.396;10.696;2023-08-12T02:39:47;18.10;99.90
29551;DHT22;16488;52.396;10.696;2023-08-12T02:42:13;18.10;99.90
29551;DHT22;16488;52.396;10.696;2023-08-12T02:44:38;18.10;99.90
29551;DHT22;16488;52.396;10.696;2023-08-12T02:47:04;18.00;99.90
29551;DHT22;16488;52.396;10.696;2023-08-12T02:49:30;18.00;99.90
29551;DHT22;16488;52.396;10.696;2023-08-12T02:51:55;18.00;99.90
29551;DHT22;16488;52.396;10.696;2023-08-12T02:54:21;18.00;99.90
29551;DHT22;16488;52.396;10.696;2023-08-12T02:56:47;18.10;99.90
29551;DHT22;16488;52.396;10.696;2023-08-12T02:59:12;18.10;99.90
29551;DHT22;16488;52.396;10.696;2023-08-12T03:01:41;18.00;99.90
29551;DHT22;16488;52.396;10.696;2023-08-12T03:04:07;18.00;99.90
29551;DHT22;16488;52.396;10.696;2023-08-12T03:06:33;18.00;99.90
29551;DHT22;16488;52.396;10.696;2023-08-12T03:08:58;18.00;99.90
29551;DHT22;16488;52.396;10.696;2023-08-12T03:11:24;18.10;99.90
29551;DHT22;16488;52.396;10.696;2023-08-12T03:13:50;18.00;99.90
29551;DHT22;16488;52.396;10.696;2023-08-12T03:16:15;18.00;99.90
29551;DHT22;16488;52.396;10.696;2023-08-12T03:18:41;18.10;99.90
29551;DHT22;16488;52.396;10.696;2023-08-12T03:21:08;18.20;99.90
29551;DHT22;16488;52.396;10.696;2023-08-12T03:23:35;18.20;99.90
29551;DHT22;16488;52.396;10.696;2023-08-12T03:26:01;18.30;99.90
29551;DHT22;16488;52.396;10.696;2023-08-12T03:28:27;18.30;99.90
29551;DHT22;16488;52.396;10.696;2023-08-12T03:30:53;18.30;99.90
29551;DHT22;16488;52.396;10.696;2023-08-12T03:33:19;18.30;99.90
29551;DHT22;16488;52.396;10.696;2023-08-12T03:35:46;18.40;99.90
29551;DHT22;16488;52.396;10.696;2023-08-12T03:38:13;18.30;99.90
29551;DHT22;16488;52.396;10.696;2023-08-12T03:40:40;18.40;99.90
29551;DHT22;16488;52.396;10.696;2023-08-12T03:43:06;18.40;99.90
29551;DHT22;16488;52.396;10.696;2023-08-12T03:45:31;18.40;99.90
29551;DHT22;16488;52.396;10.696;2023-08-12T03:47:57;18.40;99.90
29551;DHT22;16488;52.396;10.696;2023-08-12T03:50:23;18.50;99.90
29551;DHT22;16488;52.396;10.696;2023-08-12T03:52:48;18.50;99.90
29551;DHT22;16488;52.396;10.696;2023-08-12T03:55:14;18.60;99.90
29551;DHT22;16488;52.396;10.696;2023-08-12T03:57:39;18.70;99.90
29551;DHT22;16488;52.396;10.696;2023-08-12T04:00:05;18.80;99.90
29551;DHT22;16488;52.396;10.696;2023-08-12T04:02:33;18.80;99.90
29551;DHT22;16488;52.396;10.696;2023-08-12T04:04:59;18.80;99.90
29551;DHT22;16488;52.396;10.696;2023-08-12T04:07:24;18.80;99.90
29551;DHT22;16488;52.396;10.696;2023-08-12T04:09:52;18.80;99.90
29551;DHT22;16488;52.396;10.696;2023-08-12T04:12:18;18.90;99.90
29551;DHT22;16488;52.396;10.696;2023-08-12T04:14:43;18.80;99.90
29551;DHT22;16488;52.396;10.696;2023-08-12T04:17:09;18.90;99.90
29551;DHT22;16488;52.396;10.696;2023-08-12T04:19:34;18.90;99.90
29551;DHT22;16488;52.396;10.696;2023-08-12T04:22:00;19.00;99.90
29551;DHT22;16488;52.396;10.696;2023-08-12T04:24:26;19.00;99.90
29551;DHT22;16488;52.396;10.696;2023-08-12T04:26:51;19.10;99.90
29551;DHT22;16488;52.396;10.696;2023-08-12T04:29:17;19.20;99.90
29551;DHT22;16488;52.396;10.696;2023-08-12T04:31:42;19.20;99.90
29551;DHT22;16488;52.396;10.696;2023-08-12T04:34:08;19.30;99.90
29551;DHT22;16488;52.396;10.696;2023-08-12T04:36:34;19.30;99.90
29551;DHT22;16488;52.396;10.696;2023-08-12T04:38:59;19.30;99.90
29551;DHT22;16488;52.396;10.696;2023-08-12T04:41:25;19.20;99.90
29551;DHT22;16488;52.396;10.696;2023-08-12T04:43:50;19.10;99.90
29551;DHT22;16488;52.396;10.696;2023-08-12T04:46:17;19.00;99.90
29551;DHT22;16488;52.396;10.696;2023-08-12T04:48:43;19.00;99.90
29551;DHT22;16488;52.396;10.696;2023-08-12T04:51:08;19.00;99.90
29551;DHT22;16488;52.396;10.696;2023-08-12T04:53:34;18.90;99.90
29551;DHT22;16488;52.396;10.696;2023-08-12T04:56:00;18.90;99.90
29551;DHT22;16488;52.396;10.696;2023-08-12T04:58:25;18.90;99.90
29551;DHT22;16488;52.396;10.696;2023-08-12T05:00:51;18.80;99.90
29551;DHT22;16488;52.396;10.696;2023-08-12T05:03:19;18.90;99.90
29551;DHT22;16488;52.396;10.696;2023-08-12T05:05:50;18.90;99.90
29551;DHT22;16488;52.396;10.696;2023-08-12T05:08:16;19.00;99.90
29551;DHT22;16488;52.396;10.696;2023-08-12T05:10:41;19.00;99.90
29551;DHT22;16488;52.396;10.696;2023-08-12T05:13:07;19.00;99.90
29551;DHT22;16488;52.396;10.696;2023-08-12T05:15:33;19.10;99.90
29551;DHT22;16488;52.396;10.696;2023-08-12T05:17:58;19.00;99.90
29551;DHT22;16488;52.396;10.696;2023-08-12T05:20:24;19.00;99.90
29551;DHT22;16488;52.396;10.696;2023-08-12T05:22:49;19.00;99.90
29551;DHT22;16488;52.396;10.696;2023-08-12T05:25:15;19.10;99.90
29551;DHT22;16488;52.396;10.696;2023-08-12T05:27:41;19.10;99.90
29551;DHT22;16488;52.396;10.696;2023-08-12T05:30:07;19.00;99.90
29551;DHT22;16488;52.396;10.696;2023-08-12T05:32:32;19.00;99.90
29551;DHT22;16488;52.396;10.696;2023-08-12T05:34:58;19.00;99.90
29551;DHT22;16488;52.396;10.696;2023-08-12T05:37:24;19.00;99.90
29551;DHT22;16488;52.396;10.696;2023-08-12T05:39:49;18.90;99.90
29551;DHT22;16488;52.396;10.696;2023-08-12T05:42:15;18.90;99.90
29551;DHT22;16488;52.396;10.696;2023-08-12T05:44:41;18.80;99.90
29551;DHT22;16488;52.396;10.696;2023-08-12T05:47:07;18.80;99.90
29551;DHT22;16488;52.396;10.696;2023-08-12T05:49:33;18.70;99.90
29551;DHT22;16488;52.396;10.696;2023-08-12T05:51:59;18.60;99.90
29551;DHT22;16488;52.396;10.696;2023-08-12T05:54:24;18.60;99.90
29551;DHT22;16488;52.396;10.696;2023-08-12T05:56:50;18.60;99.90
29551;DHT22;16488;52.396;10.696;2023-08-12T05:59:16;18.60;99.90
29551;DHT22;16488;52.396;10.696;2023-08-12T06:01:41;18.60;99.90
29551;DHT22;16488;52.396;10.696;2023-08-12T06:04:07;18.50;99.90
29551;DHT22;16488;52.396;10.696;2023-08-12T06:06:32;18.50;99.90
29551;DHT22;16488;52.396;10.696;2023-08-12T06:08:58;18.50;99.90
29551;DHT22;16488;52.396;10.696;2023-08-12T06:11:24;18.50;99.90
29551;DHT22;16488;52.396;10.696;2023-08-12T06:13:49;18.60;99.90
29551;DHT22;16488;52.396;10.696;2023-08-12T06:16:15;18.60;99.90
29551;DHT22;16488;52.396;10.696;2023-08-12T06:18:40;18.60;99.90
29551;DHT22;16488;52.396;10.696;2023-08-12T06:21:06;18.60;99.90
29551;DHT22;16488;52.396;10.696;2023-08-12T06:23:32;18.60;99.90
29551;DHT22;16488;52.396;10.696;2023-08-12T06:25:57;18.70;99.90
29551;DHT22;16488;52.396;10.696;2023-08-12T06:28:23;18.80;99.90
29551;DHT22;16488;52.396;10.696;2023-08-12T06:30:49;18.80;99.90
29551;DHT22;16488;52.396;10.696;2023-08-12T06:33:15;18.90;99.90
29551;DHT22;16488;52.396;10.696;2023-08-12T06:35:41;19.00;99.90
29551;DHT22;16488;52.396;10.696;2023-08-12T06:38:07;19.10;99.90
29551;DHT22;16488;52.396;10.696;2023-08-12T06:40:35;19.10;99.90
29551;DHT22;16488;52.396;10.696;2023-08-12T06:43:01;19.20;99.90
29551;DHT22;16488;52.396;10.696;2023-08-12T06:45:26;19.30;99.90
29551;DHT22;16488;52.396;10.696;2023-08-12T06:47:52;19.30;99.90
29551;DHT22;16488;52.396;10.696;2023-08-12T06:50:18;19.30;99.90
29551;DHT22;16488;52.396;10.696;2023-08-12T06:52:43;19.40;99.90
29551;DHT22;16488;52.396;10.696;2023-08-12T06:55:09;19.40;99.90
29551;DHT22;16488;52.396;10.696;2023-08-12T06:57:35;19.50;99.90
29551;DHT22;16488;52.396;10.696;2023-08-12T07:00:01;19.50;99.90
29551;DHT22;16488;52.396;10.696;2023-08-12T07:02:26;19.60;99.90
29551;DHT22;16488;52.396;10.696;2023-08-12T07:04:52;19.50;99.90
29551;DHT22;16488;52.396;10.696;2023-08-12T07:07:17;19.60;99.90
29551;DHT22;16488;52.396;10.696;2023-08-12T07:09:43;19.60;99.90
29551;DHT22;16488;52.396;10.696;2023-08-12T07:12:08;19.60;99.90
29551;DHT22;16488;52.396;10.696;2023-08-12T07:14:35;19.60;99.90
29551;DHT22;16488;52.396;10.696;2023-08-12T07:17:01;19.60;99.90
29551;DHT22;16488;52.396;10.696;2023-08-12T07:19:26;19.70;99.90
29551;DHT22;16488;52.396;10.696;2023-08-12T07:21:52;19.70;99.90
29551;DHT22;16488;52.396;10.696;2023-08-12T07:24:18;19.70;99.90
29551;DHT22;16488;52.396;10.696;2023-08-12T07:26:43;19.70;99.90
29551;DHT22;16488;52.396;10.696;2023-08-12T07:29:09;19.70;99.90
29551;DHT22;16488;52.396;10.696;2023-08-12T07:31:34;19.70;99.90
29551;DHT22;16488;52.396;10.696;2023-08-12T07:34:00;19.80;99.90
29551;DHT22;16488;52.396;10.696;2023-08-12T07:36:26;19.80;99.90
29551;DHT22;16488;52.396;10.696;2023-08-12T07:38:51;19.80;99.90
29551;DHT22;16488;52.396;10.696;2023-08-12T07:41:17;19.90;99.90
29551;DHT22;16488;52.396;10.696;2023-08-12T07:43:42;19.90;99.90
29551;DHT22;16488;52.396;10.696;2023-08-12T07:46:08;19.90;99.90
29551;DHT22;16488;52.396;10.696;2023-08-12T07:48:34;19.90;99.90
29551;DHT22;16488;52.396;10.696;2023-08-12T07:51:00;19.90;99.90
29551;DHT22;16488;52.396;10.696;2023-08-12T07:53:25;19.90;99.90
29551;DHT22;16488;52.396;10.696;2023-08-12T07:55:51;19.90;99.90
29551;DHT22;16488;52.396;10.696;2023-08-12T07:58:17;19.90;99.90
29551;DHT22;16488;52.396;10.696;2023-08-12T08:00:43;19.90;99.90
29551;DHT22;16488;52.396;10.696;2023-08-12T08:03:08;19.90;99.90
29551;DHT22;16488;52.396;10.696;2023-08-12T08:05:34;19.90;99.90
29551;DHT22;16488;52.396;10.696;2023-08-12T08:07:59;19.90;99.90
29551;DHT22;16488;52.396;10.696;2023-08-12T08:10:25;19.90;99.90
29551;DHT22;16488;52.396;10.696;2023-08-12T08:12:51;19.90;99.90
29551;DHT22;16488;52.396;10.696;2023-08-12T08:15:17;19.90;99.90
29551;DHT22;16488;52.396;10.696;2023-08-12T08:17:42;19.90;99.90
29551;DHT22;16488;52.396;10.696;2023-08-12T08:20:08;19.80;99.90
29551;DHT22;16488;52.396;10.696;2023-08-12T08:22:35;19.90;99.90
29551;DHT22;16488;52.396;10.696;2023-08-12T08:25:01;19.80;99.90
29551;DHT22;16488;52.396;10.696;2023-08-12T08:27:27;19.80;99.90
29551;DHT22;16488;52.396;10.696;2023-08-12T08:29:52;19.90;99.90
29551;DHT22;16488;52.396;10.696;2023-08-12T08:32:18;19.90;99.90
29551;DHT22;16488;52.396;10.696;2023-08-12T08:34:44;20.00;99.90
29551;DHT22;16488;52.396;10.696;2023-08-12T08:37:09;20.00;99.90
29551;DHT22;16488;52.396;10.696;2023-08-12T08:39:35;20.00;99.90
29551;DHT22;16488;52.396;10.696;2023-08-12T08:42:02;20.00;99.90
29551;DHT22;16488;52.396;10.696;2023-08-12T08:44:32;20.00;99.90
29551;DHT22;16488;52.396;10.696;2023-08-12T08:46:59;19.90;99.90
29551;DHT22;16488;52.396;10.696;2023-08-12T08:49:30;19.90;99.90
29551;DHT22;16488;52.396;10.696;2023-08-12T08:51:59;19.90;99.90
29551;DHT22;16488;52.396;10.696;2023-08-12T08:54:25;19.90;99.90
29551;DHT22;16488;52.396;10.696;2023-08-12T08:56:51;19.90;99.90
29551;DHT22;16488;52.396;10.696;2023-08-12T08:59:17;19.90;99.90
29551;DHT22;16488;52.396;10.696;2023-08-12T09:01:43;20.00;99.90
29551;DHT22;16488;52.396;10.696;2023-08-12T09:04:13;20.00;99.90
29551;DHT22;16488;52.396;10.696;2023-08-12T09:06:40;20.00;99.90
29551;DHT22;16488;52.396;10.696;2023-08-12T09:09:10;20.10;99.90
29551;DHT22;16488;52.396;10.696;2023-08-12T09:11:41;20.10;99.90
29551;DHT22;16488;52.396;10.696;2023-08-12T09:14:06;20.10;99.90
29551;DHT22;16488;52.396;10.696;2023-08-12T09:16:32;20.10;99.90
29551;DHT22;16488;52.396;10.696;2023-08-12T09:18:58;20.10;99.90
29551;DHT22;16488;52.396;10.696;2023-08-12T09:21:24;20.10;99.90
29551;DHT22;16488;52.396;10.696;2023-08-12T09:23:49;20.20;99.90
29551;DHT22;16488;52.396;10.696;2023-08-12T09:26:19;20.20;99.90
29551;DHT22;16488;52.396;10.696;2023-08-12T09:28:47;20.20;99.90
29551;DHT22;16488;52.396;10.696;2023-08-12T09:33:52;20.20;99.90
29551;DHT22;16488;52.396;10.696;2023-08-12T09:36:18;20.30;99.90
29551;DHT22;16488;52.396;10.696;2023-08-12T09:38:46;20.30;99.90
29551;DHT22;16488;52.396;10.696;2023-08-12T09:41:13;20.40;99.90
29551;DHT22;16488;52.396;10.696;2023-08-12T09:43:42;20.40;99.90
29551;DHT22;16488;52.396;10.696;2023-08-12T09:46:11;20.50;99.90
29551;DHT22;16488;52.396;10.696;2023-08-12T09:48:40;20.50;99.90
29551;DHT22;16488;52.396;10.696;2023-08-12T09:51:07;20.60;99.90
29551;DHT22;16488;52.396;10.696;2023-08-12T09:53:33;20.60;99.90
29551;DHT22;16488;52.396;10.696;2023-08-12T09:56:06;20.70;99.90
29551;DHT22;16488;52.396;10.696;2023-08-12T09:58:33;20.70;99.90
29551;DHT22;16488;52.396;10.696;2023-08-12T10:01:02;20.80;99.90
29551;DHT22;16488;52.396;10.696;2023-08-12T10:03:28;20.70;99.90
29551;DHT22;16488;52.396;10.696;2023-08-12T10:05:55;20.80;99.90
29551;DHT22;16488;52.396;10.696;2023-08-12T10:08:22;20.80;99.90
29551;DHT22;16488;52.396;10.696;2023-08-12T10:10:48;20.80;99.90
29551;DHT22;16488;52.396;10.696;2023-08-12T10:13:14;20.80;99.90
29551;DHT22;16488;52.396;10.696;2023-08-12T10:15:41;20.90;99.90
29551;DHT22;16488;52.396;10.696;2023-08-12T10:18:07;20.90;99.90
29551;DHT22;16488;52.396;10.696;2023-08-12T10:20:33;20.90;99.90
29551;DHT22;16488;52.396;10.696;2023-08-12T10:23:01;21.00;99.90
29551;DHT22;16488;52.396;10.696;2023-08-12T10:25:31;21.00;99.90
29551;DHT22;16488;52.396;10.696;2023-08-12T10:27:57;21.00;99.90
29551;DHT22;16488;52.396;10.696;2023-08-12T10:30:23;21.10;99.90
29551;DHT22;16488;52.396;10.696;2023-08-12T10:32:49;21.10;99.90
29551;DHT22;16488;52.396;10.696;2023-08-12T10:35:15;21.20;99.90
29551;DHT22;16488;52.396;10.696;2023-08-12T10:37:41;21.40;99.90
29551;DHT22;16488;52.396;10.696;2023-08-12T10:40:21;21.60;99.90
29551;DHT22;16488;52.396;10.696;2023-08-12T10:42:48;21.90;99.90
29551;DHT22;16488;52.396;10.696;2023-08-12T10:45:16;22.00;99.90
29551;DHT22;16488;52.396;10.696;2023-08-12T10:47:51;22.20;99.90
29551;DHT22;16488;52.396;10.696;2023-08-12T10:50:22;22.50;99.90
29551;DHT22;16488;52.396;10.696;2023-08-12T10:52:51;22.80;99.90
29551;DHT22;16488;52.396;10.696;2023-08-12T10:55:24;22.90;99.90
29551;DHT22;16488;52.396;10.696;2023-08-12T10:57:51;23.20;99.90
29551;DHT22;16488;52.396;10.696;2023-08-12T11:00:25;23.40;99.90
29551;DHT22;16488;52.396;10.696;2023-08-12T11:02:58;23.50;99.90
29551;DHT22;16488;52.396;10.696;2023-08-12T11:05:25;23.50;99.90
29551;DHT22;16488;52.396;10.696;2023-08-12T11:08:01;23.30;99.90
29551;DHT22;16488;52.396;10.696;2023-08-12T11:10:33;23.20;99.90
29551;DHT22;16488;52.396;10.696;2023-08-12T11:12:59;23.20;99.90
29551;DHT22;16488;52.396;10.696;2023-08-12T11:17:58;22.90;99.90
29551;DHT22;16488;52.396;10.696;2023-08-12T11:20:24;22.80;99.90
29551;DHT22;16488;52.396;10.696;2023-08-12T11:22:51;22.80;99.90
29551;DHT22;16488;52.396;10.696;2023-08-12T11:25:17;22.80;99.90
29551;DHT22;16488;52.396;10.696;2023-08-12T11:27:45;22.90;99.90
29551;DHT22;16488;52.396;10.696;2023-08-12T11:30:13;22.90;99.90
29551;DHT22;16488;52.396;10.696;2023-08-12T11:32:50;23.00;99.90
29551;DHT22;16488;52.396;10.696;2023-08-12T11:35:17;23.00;99.90
29551;DHT22;16488;52.396;10.696;2023-08-12T11:37:49;23.20;99.90
29551;DHT22;16488;52.396;10.696;2023-08-12T11:40:17;23.40;99.90
29551;DHT22;16488;52.396;10.696;2023-08-12T11:42:48;23.60;99.90
29551;DHT22;16488;52.396;10.696;2023-08-12T11:45:18;23.60;99.90
29551;DHT22;16488;52.396;10.696;2023-08-12T11:47:44;23.80;99.90
29551;DHT22;16488;52.396;10.696;2023-08-12T11:50:12;24.00;99.90
29551;DHT22;16488;52.396;10.696;2023-08-12T11:52:39;24.20;99.90
29551;DHT22;16488;52.396;10.696;2023-08-12T11:55:05;24.80;99.90
29551;DHT22;16488;52.396;10.696;2023-08-12T11:57:32;25.30;99.90
29551;DHT22;16488;52.396;10.696;2023-08-12T12:00:04;25.30;99.90
29551;DHT22;16488;52.396;10.696;2023-08-12T12:02:54;25.30;99.90
29551;DHT22;16488;52.396;10.696;2023-08-12T12:05:26;25.00;99.90
29551;DHT22;16488;52.396;10.696;2023-08-12T12:07:52;25.10;99.90
29551;DHT22;16488;52.396;10.696;2023-08-12T12:10:19;25.00;99.90
29551;DHT22;16488;52.396;10.696;2023-08-12T12:12:45;25.00;99.90
29551;DHT22;16488;52.396;10.696;2023-08-12T12:15:13;24.90;99.90
29551;DHT22;16488;52.396;10.696;2023-08-12T12:17:40;24.80;99.90
29551;DHT22;16488;52.396;10.696;2023-08-12T12:20:07;24.80;99.90
29551;DHT22;16488;52.396;10.696;2023-08-12T12:22:36;24.70;99.90
29551;DHT22;16488;52.396;10.696;2023-08-12T12:25:08;24.80;99.90
29551;DHT22;16488;52.396;10.696;2023-08-12T12:27:35;24.90;99.90
29551;DHT22;16488;52.396;10.696;2023-08-12T12:30:01;24.80;99.90
29551;DHT22;16488;52.396;10.696;2023-08-12T12:32:27;24.80;99.90
29551;DHT22;16488;52.396;10.696;2023-08-12T12:34:53;24.80;99.90
29551;DHT22;16488;52.396;10.696;2023-08-12T12:37:20;25.00;99.90
29551;DHT22;16488;52.396;10.696;2023-08-12T12:39:46;25.10;99.90
29551;DHT22;16488;52.396;10.696;2023-08-12T12:42:12;25.10;99.90
29551;DHT22;16488;52.396;10.696;2023-08-12T12:44:37;25.40;99.90
29551;DHT22;16488;52.396;10.696;2023-08-12T12:47:03;25.50;99.90
29551;DHT22;16488;52.396;10.696;2023-08-12T12:49:29;25.60;99.90
29551;DHT22;16488;52.396;10.696;2023-08-12T12:51:55;25.60;99.90
29551;DHT22;16488;52.396;10.696;2023-08-12T12:54:21;25.60;99.90
29551;DHT22;16488;52.396;10.696;2023-08-12T12:56:46;25.40;99.90
29551;DHT22;16488;52.396;10.696;2023-08-12T12:59:12;25.20;99.90
29551;DHT22;16488;52.396;10.696;2023-08-12T13:01:43;25.10;99.90
29551;DHT22;16488;52.396;10.696;2023-08-12T13:04:09;25.10;99.90
29551;DHT22;16488;52.396;10.696;2023-08-12T13:06:35;25.10;99.90
29551;DHT22;16488;52.396;10.696;2023-08-12T13:09:01;25.10;99.90
29551;DHT22;16488;52.396;10.696;2023-08-12T13:11:29;25.10;99.90
29551;DHT22;16488;52.396;10.696;2023-08-12T13:13:55;25.30;99.90
29551;DHT22;16488;52.396;10.696;2023-08-12T13:16:20;25.50;99.90
29551;DHT22;16488;52.396;10.696;2023-08-12T13:18:47;25.60;99.90
29551;DHT22;16488;52.396;10.696;2023-08-12T13:21:15;25.60;99.90
29551;DHT22;16488;52.396;10.696;2023-08-12T13:23:40;25.60;99.90
29551;DHT22;16488;52.396;10.696;2023-08-12T13:26:06;25.50;99.90
29551;DHT22;16488;52.396;10.696;2023-08-12T13:28:32;25.40;99.90
29551;DHT22;16488;52.396;10.696;2023-08-12T13:30:57;25.30;99.90
29551;DHT22;16488;52.396;10.696;2023-08-12T13:33:23;25.20;99.90
29551;DHT22;16488;52.396;10.696;2023-08-12T13:35:49;25.10;99.90
29551;DHT22;16488;52.396;10.696;2023-08-12T13:38:14;25.00;99.90
29551;DHT22;16488;52.396;10.696;2023-08-12T13:40:40;25.00;99.90
29551;DHT22;16488;52.396;10.696;2023-08-12T13:43:05;25.00;99.90
29551;DHT22;16488;52.396;10.696;2023-08-12T13:45:31;25.00;99.90
29551;DHT22;16488;52.396;10.696;2023-08-12T13:47:57;25.00;99.90
29551;DHT22;16488;52.396;10.696;2023-08-12T13:50:22;25.10;99.90
29551;DHT22;16488;52.396;10.696;2023-08-12T13:52:48;25.30;99.90
29551;DHT22;16488;52.396;10.696;2023-08-12T13:55:15;25.40;99.90
29551;DHT22;16488;52.396;10.696;2023-08-12T13:57:41;25.60;99.90
29551;DHT22;16488;52.396;10.696;2023-08-12T14:00:07;25.60;99.90
29551;DHT22;16488;52.396;10.696;2023-08-12T14:02:35;25.70;99.90
29551;DHT22;16488;52.396;10.696;2023-08-12T14:05:02;25.70;99.90
29551;DHT22;16488;52.396;10.696;2023-08-12T14:07:28;25.60;99.90
29551;DHT22;16488;52.396;10.696;2023-08-12T14:09:53;25.60;99.90
29551;DHT22;16488;52.396;10.696;2023-08-12T14:12:19;25.50;99.90
29551;DHT22;16488;52.396;10.696;2023-08-12T14:14:44;25.40;99.90
29551;DHT22;16488;52.396;10.696;2023-08-12T14:17:12;25.40;99.90
29551;DHT22;16488;52.396;10.696;2023-08-12T14:19:41;25.30;99.90
29551;DHT22;16488;52.396;10.696;2023-08-12T14:22:07;25.30;99.90
29551;DHT22;16488;52.396;10.696;2023-08-12T14:24:33;25.20;99.90
29551;DHT22;16488;52.396;10.696;2023-08-12T14:26:58;24.50;99.90
29551;DHT22;16488;52.396;10.696;2023-08-12T14:29:24;23.90;99.90
29551;DHT22;16488;52.396;10.696;2023-08-12T14:31:51;23.80;99.90
29551;DHT22;16488;52.396;10.696;2023-08-12T14:34:16;23.70;99.90
29551;DHT22;16488;52.396;10.696;2023-08-12T14:36:42;23.70;99.90
29551;DHT22;16488;52.396;10.696;2023-08-12T14:39:08;23.70;99.90
29551;DHT22;16488;52.396;10.696;2023-08-12T14:41:33;23.60;99.90
29551;DHT22;16488;52.396;10.696;2023-08-12T14:43:59;23.50;99.90
29551;DHT22;16488;52.396;10.696;2023-08-12T14:46:25;23.50;99.90
29551;DHT22;16488;52.396;10.696;2023-08-12T14:48:50;23.50;99.90
29551;DHT22;16488;52.396;10.696;2023-08-12T14:51:18;23.50;99.90
29551;DHT22;16488;52.396;10.696;2023-08-12T14:53:44;23.40;99.90
29551;DHT22;16488;52.396;10.696;2023-08-12T14:56:10;23.40;99.90
29551;DHT22;16488;52.396;10.696;2023-08-12T14:58:35;23.40;99.90
29551;DHT22;16488;52.396;10.696;2023-08-12T15:01:01;23.40;99.90
29551;DHT22;16488;52.396;10.696;2023-08-12T15:03:28;23.50;99.90
29551;DHT22;16488;52.396;10.696;2023-08-12T15:06:00;23.40;99.90
29551;DHT22;16488;52.396;10.696;2023-08-12T15:08:27;23.40;99.90
29551;DHT22;16488;52.396;10.696;2023-08-12T15:10:53;23.40;99.90
29551;DHT22;16488;52.396;10.696;2023-08-12T15:13:19;23.20;99.90
29551;DHT22;16488;52.396;10.696;2023-08-12T15:15:46;23.20;99.90
29551;DHT22;16488;52.396;10.696;2023-08-12T15:18:11;23.10;99.90